sensor_id;sensor_type;location;lat;lon;timestamp;P1;durP1;ratioP1;P2;durP2;ratioP2
70592;SDS011;58294;42.988;20.338;2024-02-21T00:00:57;63.17;;;48.78;;
70592;SDS011;58294;42.988;20.338;2024-02-21T00:03:22;66.65;;;51.08;;
70592;SDS011;58294;42.988;20.338;2024-02-21T00:05:48;58.53;;;47.08;;
70592;SDS011;58294;42.988;20.338;2024-02-21T00:08:14;54.25;;;39.28;;
70592;SDS011;58294;42.988;20.338;2024-02-21T00:10:40;68.93;;;53.75;;
70592;SDS011;58294;42.988;20.338;2024-02-21T00:13:05;54.80;;;42.88;;
70592;SDS011;58294;42.988;20.338;2024-02-21T00:15:31;54.40;;;39.97;;
70592;SDS011;58294;42.988;20.338;2024-02-21T00:17:57;53.97;;;35.95;;
70592;SDS011;58294;42.988;20.338;2024-02-21T00:20:23;44.25;;;35.60;;
70592;SDS011;58294;42.988;20.338;2024-02-21T00:22:50;43.50;;;31.90;;
70592;SDS011;58294;42.988;20.338;2024-02-21T00:25:16;53.95;;;37.58;;
70592;SDS011;58294;42.988;20.338;2024-02-21T00:27:42;57.58;;;44.65;;
70592;SDS011;58294;42.988;20.338;2024-02-21T00:30:08;53.47;;;43.35;;
70592;SDS011;58294;42.988;20.338;2024-02-21T00:32:34;49.58;;;37.78;;
70592;SDS011;58294;42.988;20.338;2024-02-21T00:35:00;51.83;;;38.72;;
70592;SDS011;58294;42.988;20.338;2024-02-21T00:37:26;69.00;;;54.63;;
70592;SDS011;58294;42.988;20.338;2024-02-21T00:39:53;58.92;;;43.63;;
70592;SDS011;58294;42.988;20.338;2024-02-21T00:42:19;42.65;;;32.78;;
70592;SDS011;58294;42.988;20.338;2024-02-21T00:44:46;42.63;;;29.27;;
70592;SDS011;58294;42.988;20.338;2024-02-21T00:47:12;36.80;;;28.27;;
70592;SDS011;58294;42.988;20.338;2024-02-21T00:49:38;37.65;;;26.33;;
70592;SDS011;58294;42.988;20.338;2024-02-21T00:52:03;40.72;;;29.80;;
70592;SDS011;58294;42.988;20.338;2024-02-21T00:54:29;34.20;;;25.08;;
70592;SDS011;58294;42.988;20.338;2024-02-21T00:56:55;35.05;;;29.05;;
70592;SDS011;58294;42.988;20.338;2024-02-21T00:59:21;40.28;;;31.52;;
70592;SDS011;58294;42.988;20.338;2024-02-21T01:01:47;45.08;;;33.67;;
70592;SDS011;58294;42.988;20.338;2024-02-21T01:04:12;48.40;;;33.00;;
70592;SDS011;58294;42.988;20.338;2024-02-21T01:06:38;46.10;;;32.42;;
70592;SDS011;58294;42.988;20.338;2024-02-21T01:09:07;61.58;;;35.22;;
70592;SDS011;58294;42.988;20.338;2024-02-21T01:11:33;53.28;;;32.20;;
70592;SDS011;58294;42.988;20.338;2024-02-21T01:13:59;45.80;;;31.08;;
70592;SDS011;58294;42.988;20.338;2024-02-21T01:16:25;46.45;;;31.17;;
70592;SDS011;58294;42.988;20.338;2024-02-21T01:18:51;55.50;;;37.28;;
70592;SDS011;58294;42.988;20.338;2024-02-21T01:21:17;54.17;;;34.55;;
70592;SDS011;58294;42.988;20.338;2024-02-21T01:23:43;50.25;;;36.30;;
70592;SDS011;58294;42.988;20.338;2024-02-21T01:26:09;56.70;;;41.10;;
70592;SDS011;58294;42.988;20.338;2024-02-21T01:28:38;59.60;;;38.72;;
70592;SDS011;58294;42.988;20.338;2024-02-21T01:31:04;59.78;;;42.85;;
70592;SDS011;58294;42.988;20.338;2024-02-21T01:33:29;56.75;;;36.15;;
70592;SDS011;58294;42.988;20.338;2024-02-21T01:36:00;53.17;;;34.13;;
70592;SDS011;58294;42.988;20.338;2024-02-21T01:38:31;54.80;;;34.47;;
70592;SDS011;58294;42.988;20.338;2024-02-21T01:40:57;49.30;;;31.60;;
70592;SDS011;58294;42.988;20.338;2024-02-21T01:43:23;69.20;;;45.42;;
70592;SDS011;58294;42.988;20.338;2024-02-21T01:45:50;52.10;;;32.40;;
70592;SDS011;58294;42.988;20.338;2024-02-21T01:48:20;54.17;;;36.17;;
70592;SDS011;58294;42.988;20.338;2024-02-21T01:50:48;47.20;;;30.70;;
70592;SDS011;58294;42.988;20.338;2024-02-21T01:53:16;64.15;;;34.08;;
70592;SDS011;58294;42.988;20.338;2024-02-21T01:55:52;45.90;;;29.33;;
70592;SDS011;58294;42.988;20.338;2024-02-21T01:58:18;32.22;;;22.65;;
70592;SDS011;58294;42.988;20.338;2024-02-21T02:00:45;53.47;;;33.65;;
70592;SDS011;58294;42.988;20.338;2024-02-21T02:03:13;43.45;;;25.67;;
70592;SDS011;58294;42.988;20.338;2024-02-21T02:05:45;35.25;;;22.45;;
70592;SDS011;58294;42.988;20.338;2024-02-21T02:08:12;41.63;;;28.77;;
70592;SDS011;58294;42.988;20.338;2024-02-21T02:10:42;56.55;;;32.15;;
70592;SDS011;58294;42.988;20.338;2024-02-21T02:13:08;38.53;;;26.55;;
70592;SDS011;58294;42.988;20.338;2024-02-21T02:15:41;45.22;;;26.90;;
70592;SDS011;58294;42.988;20.338;2024-02-21T02:18:08;35.05;;;22.90;;
70592;SDS011;58294;42.988;20.338;2024-02-21T02:20:35;36.22;;;24.85;;
70592;SDS011;58294;42.988;20.338;2024-02-21T02:23:06;33.15;;;23.35;;
70592;SDS011;58294;42.988;20.338;2024-02-21T02:25:35;34.25;;;20.30;;
70592;SDS011;58294;42.988;20.338;2024-02-21T02:28:02;27.27;;;18.13;;
70592;SDS011;58294;42.988;20.338;2024-02-21T02:30:34;31.98;;;23.08;;
70592;SDS011;58294;42.988;20.338;2024-02-21T02:33:04;31.73;;;21.75;;
70592;SDS011;58294;42.988;20.338;2024-02-21T02:35:30;26.52;;;17.95;;
70592;SDS011;58294;42.988;20.338;2024-02-21T02:37:56;19.80;;;15.23;;
70592;SDS011;58294;42.988;20.338;2024-02-21T02:40:22;21.67;;;13.50;;
70592;SDS011;58294;42.988;20.338;2024-02-21T02:42:49;25.60;;;16.02;;
70592;SDS011;58294;42.988;20.338;2024-02-21T02:45:15;29.45;;;18.48;;
70592;SDS011;58294;42.988;20.338;2024-02-21T02:47:41;29.85;;;21.65;;
70592;SDS011;58294;42.988;20.338;2024-02-21T02:50:07;31.48;;;21.92;;
70592;SDS011;58294;42.988;20.338;2024-02-21T02:52:33;34.92;;;22.95;;
70592;SDS011;58294;42.988;20.338;2024-02-21T02:54:59;39.63;;;22.23;;
70592;SDS011;58294;42.988;20.338;2024-02-21T02:57:26;38.50;;;23.10;;
70592;SDS011;58294;42.988;20.338;2024-02-21T02:59:52;41.28;;;22.33;;
70592;SDS011;58294;42.988;20.338;2024-02-21T03:02:18;35.70;;;25.10;;
70592;SDS011;58294;42.988;20.338;2024-02-21T03:04:44;30.55;;;22.75;;
70592;SDS011;58294;42.988;20.338;2024-02-21T03:07:10;34.63;;;23.20;;
70592;SDS011;58294;42.988;20.338;2024-02-21T03:09:38;34.78;;;22.80;;
70592;SDS011;58294;42.988;20.338;2024-02-21T03:12:05;41.13;;;26.45;;
70592;SDS011;58294;42.988;20.338;2024-02-21T03:14:32;34.78;;;24.70;;
70592;SDS011;58294;42.988;20.338;2024-02-21T03:16:58;35.08;;;22.33;;
70592;SDS011;58294;42.988;20.338;2024-02-21T03:19:24;32.35;;;21.73;;
70592;SDS011;58294;42.988;20.338;2024-02-21T03:21:51;29.17;;;20.92;;
70592;SDS011;58294;42.988;20.338;2024-02-21T03:24:18;28.58;;;18.83;;
70592;SDS011;58294;42.988;20.338;2024-02-21T03:26:44;27.92;;;20.85;;
70592;SDS011;58294;42.988;20.338;2024-02-21T03:29:12;27.23;;;19.77;;
70592;SDS011;58294;42.988;20.338;2024-02-21T03:31:39;24.08;;;18.30;;
70592;SDS011;58294;42.988;20.338;2024-02-21T03:34:05;27.17;;;19.27;;
70592;SDS011;58294;42.988;20.338;2024-02-21T03:36:30;29.63;;;20.50;;
70592;SDS011;58294;42.988;20.338;2024-02-21T03:38:56;41.15;;;31.02;;
70592;SDS011;58294;42.988;20.338;2024-02-21T03:41:22;33.70;;;21.38;;
70592;SDS011;58294;42.988;20.338;2024-02-21T03:43:48;31.05;;;20.15;;
70592;SDS011;58294;42.988;20.338;2024-02-21T03:46:14;29.52;;;21.27;;
70592;SDS011;58294;42.988;20.338;2024-02-21T03:48:40;33.15;;;22.15;;
70592;SDS011;58294;42.988;20.338;2024-02-21T03:51:06;30.25;;;21.60;;
70592;SDS011;58294;42.988;20.338;2024-02-21T03:53:32;39.22;;;23.08;;
70592;SDS011;58294;42.988;20.338;2024-02-21T03:56:01;33.78;;;22.17;;
70592;SDS011;58294;42.988;20.338;2024-02-21T03:58:29;35.10;;;25.17;;
70592;SDS011;58294;42.988;20.338;2024-02-21T04:00:55;40.80;;;25.95;;
70592;SDS011;58294;42.988;20.338;2024-02-21T04:03:21;34.88;;;25.70;;
70592;SDS011;58294;42.988;20.338;2024-02-21T04:05:47;43.75;;;27.13;;
70592;SDS011;58294;42.988;20.338;2024-02-21T04:08:13;34.58;;;23.83;;
70592;SDS011;58294;42.988;20.338;2024-02-21T04:10:40;40.33;;;25.83;;
70592;SDS011;58294;42.988;20.338;2024-02-21T04:13:06;46.22;;;24.10;;
70592;SDS011;58294;42.988;20.338;2024-02-21T04:15:32;43.75;;;25.80;;
70592;SDS011;58294;42.988;20.338;2024-02-21T04:17:58;50.28;;;30.75;;
70592;SDS011;58294;42.988;20.338;2024-02-21T04:20:24;40.05;;;25.60;;
70592;SDS011;58294;42.988;20.338;2024-02-21T04:22:50;31.38;;;19.88;;
70592;SDS011;58294;42.988;20.338;2024-02-21T04:25:15;27.27;;;19.80;;
70592;SDS011;58294;42.988;20.338;2024-02-21T04:27:41;39.15;;;27.00;;
70592;SDS011;58294;42.988;20.338;2024-02-21T04:30:07;32.13;;;24.58;;
70592;SDS011;58294;42.988;20.338;2024-02-21T04:32:34;32.08;;;20.08;;
70592;SDS011;58294;42.988;20.338;2024-02-21T04:35:00;27.98;;;20.15;;
70592;SDS011;58294;42.988;20.338;2024-02-21T04:37:26;32.00;;;22.00;;
70592;SDS011;58294;42.988;20.338;2024-02-21T04:39:52;27.13;;;18.98;;
70592;SDS011;58294;42.988;20.338;2024-02-21T04:42:18;25.05;;;18.45;;
70592;SDS011;58294;42.988;20.338;2024-02-21T04:44:44;28.00;;;17.13;;
70592;SDS011;58294;42.988;20.338;2024-02-21T04:47:09;24.48;;;17.92;;
70592;SDS011;58294;42.988;20.338;2024-02-21T04:49:35;26.80;;;18.70;;
70592;SDS011;58294;42.988;20.338;2024-02-21T04:52:01;34.42;;;20.88;;
70592;SDS011;58294;42.988;20.338;2024-02-21T04:54:27;27.98;;;17.90;;
70592;SDS011;58294;42.988;20.338;2024-02-21T04:56:53;28.90;;;19.10;;
70592;SDS011;58294;42.988;20.338;2024-02-21T04:59:19;29.45;;;19.88;;
70592;SDS011;58294;42.988;20.338;2024-02-21T05:01:44;44.45;;;31.85;;
70592;SDS011;58294;42.988;20.338;2024-02-21T05:04:10;28.52;;;20.80;;
70592;SDS011;58294;42.988;20.338;2024-02-21T05:06:39;29.38;;;19.88;;
70592;SDS011;58294;42.988;20.338;2024-02-21T05:09:06;33.25;;;19.83;;
70592;SDS011;58294;42.988;20.338;2024-02-21T05:11:36;40.53;;;30.85;;
70592;SDS011;58294;42.988;20.338;2024-02-21T05:14:05;33.22;;;26.40;;
70592;SDS011;58294;42.988;20.338;2024-02-21T05:16:31;38.78;;;29.60;;
70592;SDS011;58294;42.988;20.338;2024-02-21T05:18:57;31.10;;;21.23;;
70592;SDS011;58294;42.988;20.338;2024-02-21T05:21:23;28.35;;;19.02;;
70592;SDS011;58294;42.988;20.338;2024-02-21T05:23:50;25.83;;;19.85;;
70592;SDS011;58294;42.988;20.338;2024-02-21T05:26:20;29.95;;;20.58;;
70592;SDS011;58294;42.988;20.338;2024-02-21T05:28:52;30.35;;;22.23;;
70592;SDS011;58294;42.988;20.338;2024-02-21T05:31:18;46.28;;;34.35;;
70592;SDS011;58294;42.988;20.338;2024-02-21T05:33:45;32.22;;;24.25;;
70592;SDS011;58294;42.988;20.338;2024-02-21T05:36:11;30.90;;;21.65;;
70592;SDS011;58294;42.988;20.338;2024-02-21T05:38:37;28.85;;;20.40;;
70592;SDS011;58294;42.988;20.338;2024-02-21T05:41:03;30.77;;;22.10;;
70592;SDS011;58294;42.988;20.338;2024-02-21T05:43:30;32.53;;;25.02;;
70592;SDS011;58294;42.988;20.338;2024-02-21T05:45:56;32.47;;;22.42;;
70592;SDS011;58294;42.988;20.338;2024-02-21T05:48:22;34.15;;;23.95;;
70592;SDS011;58294;42.988;20.338;2024-02-21T05:50:48;30.38;;;22.08;;
70592;SDS011;58294;42.988;20.338;2024-02-21T05:53:14;57.03;;;50.72;;
70592;SDS011;58294;42.988;20.338;2024-02-21T05:55:40;31.70;;;24.65;;
70592;SDS011;58294;42.988;20.338;2024-02-21T05:58:06;37.80;;;27.50;;
70592;SDS011;58294;42.988;20.338;2024-02-21T06:00:35;53.10;;;41.13;;
70592;SDS011;58294;42.988;20.338;2024-02-21T06:03:02;35.78;;;25.88;;
70592;SDS011;58294;42.988;20.338;2024-02-21T06:05:27;34.47;;;23.40;;
70592;SDS011;58294;42.988;20.338;2024-02-21T06:07:53;28.42;;;23.33;;
70592;SDS011;58294;42.988;20.338;2024-02-21T06:10:19;30.65;;;21.63;;
70592;SDS011;58294;42.988;20.338;2024-02-21T06:12:45;31.33;;;23.70;;
70592;SDS011;58294;42.988;20.338;2024-02-21T06:15:11;42.33;;;29.13;;
70592;SDS011;58294;42.988;20.338;2024-02-21T06:17:36;39.47;;;28.52;;
70592;SDS011;58294;42.988;20.338;2024-02-21T06:20:02;34.17;;;24.52;;
70592;SDS011;58294;42.988;20.338;2024-02-21T06:22:29;33.63;;;25.25;;
70592;SDS011;58294;42.988;20.338;2024-02-21T06:24:56;32.95;;;25.10;;
70592;SDS011;58294;42.988;20.338;2024-02-21T06:27:21;32.08;;;26.63;;
70592;SDS011;58294;42.988;20.338;2024-02-21T06:29:47;40.28;;;28.63;;
70592;SDS011;58294;42.988;20.338;2024-02-21T06:32:13;48.75;;;32.53;;
70592;SDS011;58294;42.988;20.338;2024-02-21T06:34:39;48.17;;;34.83;;
70592;SDS011;58294;42.988;20.338;2024-02-21T06:37:04;64.88;;;44.75;;
70592;SDS011;58294;42.988;20.338;2024-02-21T06:39:30;58.20;;;38.90;;
70592;SDS011;58294;42.988;20.338;2024-02-21T06:41:56;43.85;;;33.70;;
70592;SDS011;58294;42.988;20.338;2024-02-21T06:44:22;47.75;;;33.80;;
70592;SDS011;58294;42.988;20.338;2024-02-21T06:46:47;50.38;;;35.15;;
70592;SDS011;58294;42.988;20.338;2024-02-21T06:49:13;48.38;;;32.95;;
70592;SDS011;58294;42.988;20.338;2024-02-21T06:51:44;55.72;;;37.25;;
70592;SDS011;58294;42.988;20.338;2024-02-21T06:54:10;45.25;;;33.35;;
70592;SDS011;58294;42.988;20.338;2024-02-21T06:56:36;37.13;;;25.10;;
70592;SDS011;58294;42.988;20.338;2024-02-21T06:59:02;43.42;;;31.40;;
70592;SDS011;58294;42.988;20.338;2024-02-21T07:01:29;44.45;;;33.15;;
70592;SDS011;58294;42.988;20.338;2024-02-21T07:03:55;55.95;;;41.88;;
70592;SDS011;58294;42.988;20.338;2024-02-21T07:06:21;61.03;;;45.88;;
70592;SDS011;58294;42.988;20.338;2024-02-21T07:08:47;60.70;;;42.85;;
70592;SDS011;58294;42.988;20.338;2024-02-21T07:11:13;54.30;;;42.08;;
70592;SDS011;58294;42.988;20.338;2024-02-21T07:13:39;59.58;;;46.13;;
70592;SDS011;58294;42.988;20.338;2024-02-21T07:16:05;57.22;;;42.97;;
70592;SDS011;58294;42.988;20.338;2024-02-21T07:18:32;67.03;;;50.72;;
70592;SDS011;58294;42.988;20.338;2024-02-21T07:20:58;56.15;;;40.55;;
70592;SDS011;58294;42.988;20.338;2024-02-21T07:23:24;47.95;;;34.63;;
70592;SDS011;58294;42.988;20.338;2024-02-21T07:25:49;55.20;;;42.88;;
70592;SDS011;58294;42.988;20.338;2024-02-21T07:28:16;59.63;;;43.63;;
70592;SDS011;58294;42.988;20.338;2024-02-21T07:30:42;69.40;;;48.35;;
70592;SDS011;58294;42.988;20.338;2024-02-21T07:33:08;72.47;;;53.85;;
70592;SDS011;58294;42.988;20.338;2024-02-21T07:35:34;76.80;;;53.90;;
70592;SDS011;58294;42.988;20.338;2024-02-21T07:38:03;62.20;;;45.45;;
70592;SDS011;58294;42.988;20.338;2024-02-21T07:40:30;60.13;;;46.30;;
70592;SDS011;58294;42.988;20.338;2024-02-21T07:42:56;75.82;;;53.17;;
70592;SDS011;58294;42.988;20.338;2024-02-21T07:45:22;84.07;;;53.50;;
70592;SDS011;58294;42.988;20.338;2024-02-21T07:47:49;68.63;;;49.63;;
70592;SDS011;58294;42.988;20.338;2024-02-21T07:50:15;59.28;;;46.92;;
70592;SDS011;58294;42.988;20.338;2024-02-21T07:52:42;59.25;;;46.22;;
70592;SDS011;58294;42.988;20.338;2024-02-21T07:55:08;80.95;;;67.40;;
70592;SDS011;58294;42.988;20.338;2024-02-21T07:57:35;65.38;;;49.78;;
70592;SDS011;58294;42.988;20.338;2024-02-21T08:00:01;57.03;;;44.08;;
70592;SDS011;58294;42.988;20.338;2024-02-21T08:02:34;54.22;;;44.08;;
70592;SDS011;58294;42.988;20.338;2024-02-21T08:05:00;56.42;;;43.97;;
70592;SDS011;58294;42.988;20.338;2024-02-21T08:07:26;68.47;;;52.17;;
70592;SDS011;58294;42.988;20.338;2024-02-21T08:09:54;90.00;;;65.10;;
70592;SDS011;58294;42.988;20.338;2024-02-21T08:12:20;81.93;;;63.55;;
70592;SDS011;58294;42.988;20.338;2024-02-21T08:14:45;84.85;;;64.03;;
70592;SDS011;58294;42.988;20.338;2024-02-21T08:17:11;89.88;;;70.22;;
70592;SDS011;58294;42.988;20.338;2024-02-21T08:19:37;84.03;;;65.70;;
70592;SDS011;58294;42.988;20.338;2024-02-21T08:22:03;84.03;;;62.97;;
70592;SDS011;58294;42.988;20.338;2024-02-21T08:24:29;77.18;;;59.00;;
70592;SDS011;58294;42.988;20.338;2024-02-21T08:26:54;88.25;;;64.05;;
70592;SDS011;58294;42.988;20.338;2024-02-21T08:29:20;82.75;;;58.67;;
70592;SDS011;58294;42.988;20.338;2024-02-21T08:31:46;77.88;;;62.10;;
70592;SDS011;58294;42.988;20.338;2024-02-21T08:34:12;71.45;;;49.35;;
70592;SDS011;58294;42.988;20.338;2024-02-21T08:36:38;97.60;;;77.57;;
70592;SDS011;58294;42.988;20.338;2024-02-21T08:39:04;100.90;;;81.50;;
70592;SDS011;58294;42.988;20.338;2024-02-21T08:41:33;96.07;;;75.90;;
70592;SDS011;58294;42.988;20.338;2024-02-21T08:43:59;67.45;;;48.50;;
70592;SDS011;58294;42.988;20.338;2024-02-21T08:46:25;68.20;;;50.28;;
70592;SDS011;58294;42.988;20.338;2024-02-21T08:48:51;68.72;;;51.08;;
70592;SDS011;58294;42.988;20.338;2024-02-21T08:51:18;48.78;;;34.50;;
70592;SDS011;58294;42.988;20.338;2024-02-21T08:53:47;32.75;;;24.27;;
70592;SDS011;58294;42.988;20.338;2024-02-21T08:56:14;40.15;;;28.45;;
70592;SDS011;58294;42.988;20.338;2024-02-21T08:58:40;32.90;;;25.02;;
70592;SDS011;58294;42.988;20.338;2024-02-21T09:01:06;35.60;;;26.05;;
70592;SDS011;58294;42.988;20.338;2024-02-21T09:03:38;23.85;;;19.02;;
70592;SDS011;58294;42.988;20.338;2024-02-21T09:06:08;30.48;;;22.17;;
70592;SDS011;58294;42.988;20.338;2024-02-21T09:08:35;29.30;;;18.25;;
70592;SDS011;58294;42.988;20.338;2024-02-21T09:11:01;16.35;;;12.00;;
70592;SDS011;58294;42.988;20.338;2024-02-21T09:13:27;14.75;;;11.73;;
70592;SDS011;58294;42.988;20.338;2024-02-21T09:15:53;19.08;;;14.30;;
70592;SDS011;58294;42.988;20.338;2024-02-21T09:18:18;18.25;;;13.15;;
70592;SDS011;58294;42.988;20.338;2024-02-21T09:20:44;17.92;;;13.05;;
70592;SDS011;58294;42.988;20.338;2024-02-21T09:23:11;16.00;;;11.57;;
70592;SDS011;58294;42.988;20.338;2024-02-21T09:25:37;16.70;;;13.27;;
70592;SDS011;58294;42.988;20.338;2024-02-21T09:28:03;15.48;;;11.68;;
70592;SDS011;58294;42.988;20.338;2024-02-21T09:30:31;15.85;;;12.00;;
70592;SDS011;58294;42.988;20.338;2024-02-21T09:32:57;20.20;;;14.38;;
70592;SDS011;58294;42.988;20.338;2024-02-21T09:35:27;17.13;;;12.93;;
70592;SDS011;58294;42.988;20.338;2024-02-21T09:37:53;18.83;;;15.18;;
70592;SDS011;58294;42.988;20.338;2024-02-21T09:40:20;15.45;;;13.88;;
70592;SDS011;58294;42.988;20.338;2024-02-21T09:42:46;18.58;;;15.40;;
70592;SDS011;58294;42.988;20.338;2024-02-21T09:45:20;18.13;;;15.50;;
70592;SDS011;58294;42.988;20.338;2024-02-21T09:50:40;14.15;;;12.65;;
70592;SDS011;58294;42.988;20.338;2024-02-21T09:53:08;13.10;;;11.73;;
70592;SDS011;58294;42.988;20.338;2024-02-21T09:55:37;19.83;;;15.23;;
70592;SDS011;58294;42.988;20.338;2024-02-21T09:58:06;18.13;;;14.25;;
70592;SDS011;58294;42.988;20.338;2024-02-21T10:00:35;14.10;;;12.60;;
70592;SDS011;58294;42.988;20.338;2024-02-21T10:03:01;11.82;;;9.75;;
70592;SDS011;58294;42.988;20.338;2024-02-21T10:05:33;13.00;;;11.65;;
70592;SDS011;58294;42.988;20.338;2024-02-21T10:08:00;23.88;;;20.33;;
70592;SDS011;58294;42.988;20.338;2024-02-21T10:10:26;25.85;;;22.70;;
70592;SDS011;58294;42.988;20.338;2024-02-21T10:12:52;21.00;;;17.13;;
70592;SDS011;58294;42.988;20.338;2024-02-21T10:15:23;18.60;;;9.93;;
70592;SDS011;58294;42.988;20.338;2024-02-21T10:18:01;14.00;;;10.52;;
70592;SDS011;58294;42.988;20.338;2024-02-21T10:20:32;13.20;;;11.32;;
70592;SDS011;58294;42.988;20.338;2024-02-21T10:23:03;11.88;;;9.77;;
70592;SDS011;58294;42.988;20.338;2024-02-21T10:25:36;13.68;;;10.98;;
70592;SDS011;58294;42.988;20.338;2024-02-21T10:28:13;15.23;;;10.57;;
70592;SDS011;58294;42.988;20.338;2024-02-21T10:30:49;13.25;;;10.43;;
70592;SDS011;58294;42.988;20.338;2024-02-21T10:33:18;11.90;;;9.30;;
70592;SDS011;58294;42.988;20.338;2024-02-21T10:35:47;10.15;;;8.38;;
70592;SDS011;58294;42.988;20.338;2024-02-21T10:38:14;12.10;;;10.30;;
70592;SDS011;58294;42.988;20.338;2024-02-21T10:40:40;12.68;;;10.98;;
70592;SDS011;58294;42.988;20.338;2024-02-21T10:43:07;13.73;;;12.32;;
70592;SDS011;58294;42.988;20.338;2024-02-21T10:45:39;16.67;;;11.98;;
70592;SDS011;58294;42.988;20.338;2024-02-21T10:48:15;15.23;;;12.38;;
70592;SDS011;58294;42.988;20.338;2024-02-21T10:50:57;17.53;;;15.73;;
70592;SDS011;58294;42.988;20.338;2024-02-21T10:59:02;21.67;;;18.73;;
70592;SDS011;58294;42.988;20.338;2024-02-21T11:01:32;31.25;;;25.95;;
70592;SDS011;58294;42.988;20.338;2024-02-21T11:04:01;22.50;;;20.25;;
70592;SDS011;58294;42.988;20.338;2024-02-21T11:06:29;24.67;;;22.08;;
70592;SDS011;58294;42.988;20.338;2024-02-21T11:09:05;22.08;;;19.88;;
70592;SDS011;58294;42.988;20.338;2024-02-21T11:11:41;22.50;;;20.10;;
70592;SDS011;58294;42.988;20.338;2024-02-21T11:14:10;22.63;;;20.15;;
70592;SDS011;58294;42.988;20.338;2024-02-21T11:16:39;22.35;;;19.95;;
70592;SDS011;58294;42.988;20.338;2024-02-21T11:19:07;20.25;;;15.55;;
70592;SDS011;58294;42.988;20.338;2024-02-21T11:21:50;21.13;;;17.80;;
70592;SDS011;58294;42.988;20.338;2024-02-21T11:24:28;18.52;;;14.88;;
70592;SDS011;58294;42.988;20.338;2024-02-21T11:26:55;21.70;;;16.73;;
70592;SDS011;58294;42.988;20.338;2024-02-21T11:29:25;21.10;;;16.38;;
70592;SDS011;58294;42.988;20.338;2024-02-21T11:31:51;20.08;;;14.55;;
70592;SDS011;58294;42.988;20.338;2024-02-21T11:34:17;19.48;;;15.52;;
70592;SDS011;58294;42.988;20.338;2024-02-21T11:36:50;19.08;;;16.20;;
70592;SDS011;58294;42.988;20.338;2024-02-21T11:39:18;33.28;;;28.83;;
70592;SDS011;58294;42.988;20.338;2024-02-21T11:41:46;37.72;;;29.92;;
70592;SDS011;58294;42.988;20.338;2024-02-21T11:44:32;36.10;;;29.98;;
70592;SDS011;58294;42.988;20.338;2024-02-21T11:46:59;48.78;;;35.65;;
70592;SDS011;58294;42.988;20.338;2024-02-21T11:49:26;51.13;;;40.47;;
70592;SDS011;58294;42.988;20.338;2024-02-21T11:51:58;56.75;;;45.00;;
70592;SDS011;58294;42.988;20.338;2024-02-21T11:54:32;17.13;;;14.20;;
70592;SDS011;58294;42.988;20.338;2024-02-21T11:56:58;53.70;;;39.08;;
70592;SDS011;58294;42.988;20.338;2024-02-21T11:59:25;57.10;;;41.72;;
70592;SDS011;58294;42.988;20.338;2024-02-21T12:01:52;19.00;;;14.23;;
70592;SDS011;58294;42.988;20.338;2024-02-21T12:04:20;10.35;;;8.95;;
70592;SDS011;58294;42.988;20.338;2024-02-21T12:06:48;9.90;;;7.80;;
70592;SDS011;58294;42.988;20.338;2024-02-21T12:09:18;8.98;;;7.40;;
70592;SDS011;58294;42.988;20.338;2024-02-21T12:11:44;11.10;;;9.00;;
70592;SDS011;58294;42.988;20.338;2024-02-21T12:14:15;11.20;;;9.18;;
70592;SDS011;58294;42.988;20.338;2024-02-21T12:16:41;12.38;;;9.70;;
70592;SDS011;58294;42.988;20.338;2024-02-21T12:19:12;11.48;;;8.27;;
70592;SDS011;58294;42.988;20.338;2024-02-21T12:21:38;11.95;;;9.27;;
70592;SDS011;58294;42.988;20.338;2024-02-21T12:24:15;11.02;;;8.82;;
70592;SDS011;58294;42.988;20.338;2024-02-21T12:26:51;15.05;;;10.63;;
70592;SDS011;58294;42.988;20.338;2024-02-21T12:29:18;14.85;;;11.60;;
70592;SDS011;58294;42.988;20.338;2024-02-21T12:31:44;21.45;;;16.45;;
70592;SDS011;58294;42.988;20.338;2024-02-21T12:34:10;18.20;;;14.10;;
70592;SDS011;58294;42.988;20.338;2024-02-21T12:36:40;20.60;;;15.52;;
70592;SDS011;58294;42.988;20.338;2024-02-21T12:39:09;18.48;;;15.52;;
70592;SDS011;58294;42.988;20.338;2024-02-21T12:41:36;24.30;;;14.60;;
70592;SDS011;58294;42.988;20.338;2024-02-21T12:44:09;54.42;;;38.45;;
70592;SDS011;58294;42.988;20.338;2024-02-21T12:46:38;61.50;;;45.97;;
70592;SDS011;58294;42.988;20.338;2024-02-21T12:49:07;63.25;;;45.53;;
70592;SDS011;58294;42.988;20.338;2024-02-21T12:51:34;181.57;;;101.65;;
70592;SDS011;58294;42.988;20.338;2024-02-21T12:54:00;171.20;;;97.25;;
70592;SDS011;58294;42.988;20.338;2024-02-21T12:56:26;41.45;;;31.98;;
70592;SDS011;58294;42.988;20.338;2024-02-21T12:58:52;43.53;;;38.88;;
70592;SDS011;58294;42.988;20.338;2024-02-21T13:01:18;28.52;;;24.90;;
70592;SDS011;58294;42.988;20.338;2024-02-21T13:03:44;52.35;;;43.45;;
70592;SDS011;58294;42.988;20.338;2024-02-21T13:06:11;35.05;;;29.90;;
70592;SDS011;58294;42.988;20.338;2024-02-21T13:08:37;25.75;;;22.35;;
70592;SDS011;58294;42.988;20.338;2024-02-21T13:11:03;24.73;;;18.85;;
70592;SDS011;58294;42.988;20.338;2024-02-21T13:13:30;36.40;;;29.00;;
70592;SDS011;58294;42.988;20.338;2024-02-21T13:15:56;56.72;;;41.90;;
70592;SDS011;58294;42.988;20.338;2024-02-21T13:18:23;43.88;;;35.03;;
70592;SDS011;58294;42.988;20.338;2024-02-21T13:20:49;44.97;;;31.73;;
70592;SDS011;58294;42.988;20.338;2024-02-21T13:23:14;41.38;;;31.42;;
70592;SDS011;58294;42.988;20.338;2024-02-21T13:25:40;32.58;;;24.73;;
70592;SDS011;58294;42.988;20.338;2024-02-21T13:28:06;31.05;;;22.75;;
70592;SDS011;58294;42.988;20.338;2024-02-21T13:30:33;23.60;;;18.80;;
70592;SDS011;58294;42.988;20.338;2024-02-21T13:32:59;19.67;;;15.95;;
70592;SDS011;58294;42.988;20.338;2024-02-21T13:35:25;17.23;;;14.80;;
70592;SDS011;58294;42.988;20.338;2024-02-21T13:37:51;18.15;;;15.60;;
70592;SDS011;58294;42.988;20.338;2024-02-21T13:40:16;20.45;;;18.20;;
70592;SDS011;58294;42.988;20.338;2024-02-21T13:42:42;20.67;;;18.35;;
70592;SDS011;58294;42.988;20.338;2024-02-21T13:45:08;22.00;;;17.77;;
70592;SDS011;58294;42.988;20.338;2024-02-21T13:47:34;19.67;;;15.93;;
70592;SDS011;58294;42.988;20.338;2024-02-21T13:50:06;18.48;;;14.15;;
70592;SDS011;58294;42.988;20.338;2024-02-21T13:52:36;21.02;;;16.05;;
70592;SDS011;58294;42.988;20.338;2024-02-21T13:55:03;23.60;;;19.55;;
70592;SDS011;58294;42.988;20.338;2024-02-21T13:57:29;22.52;;;18.35;;
70592;SDS011;58294;42.988;20.338;2024-02-21T13:59:55;22.23;;;18.77;;
70592;SDS011;58294;42.988;20.338;2024-02-21T14:02:20;24.17;;;18.40;;
70592;SDS011;58294;42.988;20.338;2024-02-21T14:04:47;26.05;;;20.80;;
70592;SDS011;58294;42.988;20.338;2024-02-21T14:07:13;27.23;;;19.85;;
70592;SDS011;58294;42.988;20.338;2024-02-21T14:09:44;22.05;;;17.05;;
70592;SDS011;58294;42.988;20.338;2024-02-21T14:12:10;21.20;;;16.10;;
70592;SDS011;58294;42.988;20.338;2024-02-21T14:14:35;22.05;;;16.65;;
70592;SDS011;58294;42.988;20.338;2024-02-21T14:17:02;31.55;;;25.05;;